Aeroporto :
LOGIN :

Iscrizione | Disclaimer

   EN    FR    IT 

 










Sommario :    VFR   VFR Marginale   IFR   IFR Intensivo   IFR Molto Intensivo
Visibilità : 
Base nubi : 
>= 8 km
>= 3000ft
5 / 8 km
1000 / 3000 ft
1500m / 5 km
500 / 1000 ft
800 / 1500m
200 / 500 ft
< 800m
< 200 ft
Simboli :   Temporali  Nebbia  Neve Forte  Precipitazioni Forti  Vento > 20 kt
SIGMETs :   Varie  Temporali  Ghiacco  Turbolenza  Onda orograficha  Ceneri Vulcaniche







- Altitudine del aeroporto : 42 ft
- Codice IATA : KGD


UMKK - Khrabrava - Kaliningrad

ULTIMO METAR :
  • 191630Z 05004MPS CAVOK 21/12 Q1013 R06/60D NOSIG RMK QFE759/1012

METARs OBSOLETI :
  • 191600Z 06005MPS CAVOK 21/12 Q1013 R06/CLRD60 NOSIG RMK QFE759/1012
  • 191530Z 05005MPS CAVOK 22/12 Q1013 R06/60D NOSIG RMK QFE759/1012
  • 191500Z 05005MPS CAVOK 22/12 Q1013 R06/CLRD60 NOSIG RMK QFE759/1012
  • 191430Z 04004MPS CAVOK 22/13 Q1013 R06/60D NOSIG RMK QFE759/1012
  • 191400Z 04004MPS 010V070 9999 FEW020 22/13 Q1014 R06/CLRD60 NOSIG RMK QFE759/1012

TAF TAF UMKK
Valido dal 19 a 15 ore il 20 a 15 ore UTC


191358Z 1915/2015 04003G08MPS 9999 SCT020
FM192000 06003MPS 3100 BR SCT011
TEMPO 1920/2005 VRB01MPS 0300 FG BKN002
BECMG 2005/2007 08003G08MPS CAVOK
TEMPO 2012/2015 05006MPS



MetMap, La meteo Aeronautica in un colpo d'occhio ! - Copyright ORBIFLY Dicembre 2007 - Disclaimer

ORBIFLY MET'MAP TEAM :

Programmazione e sviluppo : Alexandra Zaïnal
Concezione e sviluppo : Baudouin d'Aumeries
Co-Programmazione e sviluppo : Marc-Olivier Méhu
Supporto tecnico e logistico : Manuel Goepfert
Aiuto per la traduzione : Arnaldo La Scala

Contatto : metmap@orbifly.com




FONTI E CREDITI :

   NOAA